KHNB/HNB METAR and TAF weather

Enter ICAO airport designator
Station Type Date Time Source
KHNB METAR 2019/06/19 05:56 UTC NOAA

KHNB 190556Z AUTO 00000KT 10SM OVC110 22/21 A2984 RMK AO2 SLP100 T02170211 10267 20217 58004


Station Type Date Time Source
KHNB Decoded METAR 2019/06/19 05:56 UTC NOAA

Huntingburg, IN, United States (KHNB) 38-15N 086-57W
Jun 19, 2019 - 01:56 AM EDT / 2019.06.19 0556 UTC
Wind: Calm:0
Visibility: 10 mile(s):0
Sky conditions: overcast
Temperature: 71.1 F (21.7 C)
Dew Point: 70.0 F (21.1 C)
Relative Humidity: 96%
Pressure (altimeter): 29.84 in. Hg (1010 hPa)
Pressure tendency: 0.01 inches (0.4 hPa) lower than three hours ago
ob: KHNB 190556Z AUTO 00000KT 10SM OVC110 22/21 A2984 RMK AO2 SLP100 T02170211 10267 20217 58004
cycle: 6

Station Type Date Time Source
KHNB TAF 2019/06/19 06:30 UTC NOAA

TAF KHNB 190528Z 1906/2006 VRB03KT P6SM BKN100
FM190900 VRB02KT P6SM BKN015
TEMPO 1909/1913 5SM BR BKN008
FM191300 21006KT P6SM SCT015 BKN050
FM191500 23010KT P6SM VCSH BKN050 PROB30 1916/1920 2SM TSRA BKN035CB
FM200200 20005KT P6SM VCSH BKN050 PROB30 2004/2006 2SM TSRA BKN025CB

Example: see airport list